Time;durP1;ratioP1;P1;durP2;ratioP2;P2;SDS_P1;SDS_P2;PMS_P1;PMS_P2;Temp;Humidity;BMP_temperature;BMP_pressure;BME280_temperature;BME280_humidity;BME280_pressure;Samples;Min_cycle;Max_cycle;Signal;HPM_P1;HPM_P2
2022/08/22 00:01:31;;;;;;;14.38;9.18;;;;;;;;;;6125812;23;20018;-79
2022/08/22 00:04:23;;;;;;;15.65;9.57;;;;;;;;;;6125701;23;20034;-80
2022/08/22 00:06:50;;;;;;;14.18;9.38;;;;;;;;;;6127372;23;20022;-78
2022/08/22 00:09:35;;;;;;;18.33;10.45;;;;;;;;;;6125831;23;20014;-81
2022/08/22 00:12:08;;;;;;;15.50;10.87;;;;;;;;;;6126137;23;20026;-81
2022/08/22 00:14:36;;;;;;;15.90;9.80;;;;;;;;;;6125987;23;20706;-78
2022/08/22 00:17:21;;;;;;;18.45;10.57;;;;;;;;;;6125839;23;20025;-80
2022/08/22 00:19:55;;;;;;;15.32;10.43;;;;;;;;;;6125304;23;20089;-79
2022/08/22 00:22:25;;;;;;;21.90;11.60;;;;;;;;;;6125216;23;20048;-80
2022/08/22 00:25:08;;;;;;;19.27;10.68;;;;;;;;;;6125346;23;20024;-78
2022/08/22 00:28:07;;;;;;;17.70;10.90;;;;;;;;;;6126918;23;20028;-79
2022/08/22 00:30:41;;;;;;;15.20;10.93;;;;;;;;;;6127190;23;20018;-77
2022/08/22 00:33:16;;;;;;;14.13;10.57;;;;;;;;;;6125927;23;20101;-79
2022/08/22 00:35:47;;;;;;;16.85;11.38;;;;;;;;;;6149942;23;20018;-79
2022/08/22 00:38:21;;;;;;;17.77;11.55;;;;;;;;;;6127149;23;20052;-79
2022/08/22 00:41:01;;;;;;;17.83;11.23;;;;;;;;;;6126830;23;20013;-80
2022/08/22 00:43:31;;;;;;;17.67;10.88;;;;;;;;;;6127010;23;20045;-82
2022/08/22 00:45:59;;;;;;;13.75;10.93;;;;;;;;;;6127334;23;20025;-84
2022/08/22 00:48:45;;;;;;;15.60;11.10;;;;;;;;;;6127763;23;20021;-82
2022/08/22 00:51:29;;;;;;;13.98;10.30;;;;;;;;;;6127104;23;20018;-80
2022/08/22 00:54:11;;;;;;;11.65;9.88;;;;;;;;;;6127098;23;20044;-82
2022/08/22 00:57:03;;;;;;;12.80;9.32;;;;;;;;;;6126960;23;20028;-82
2022/08/22 00:59:51;;;;;;;16.75;9.80;;;;;;;;;;6127747;23;20021;-85
2022/08/22 01:02:22;;;;;;;11.75;9.63;;;;;;;;;;6127291;23;20018;-84
2022/08/22 01:04:51;;;;;;;14.40;10.32;;;;;;;;;;6126042;23;20020;-85
2022/08/22 01:07:22;;;;;;;16.92;11.55;;;;;;;;;;6127023;23;20021;-84
2022/08/22 01:09:59;;;;;;;14.63;12.50;;;;;;;;;;6126997;23;20014;-84
2022/08/22 01:12:49;;;;;;;16.75;12.23;;;;;;;;;;6127185;23;20017;-83
2022/08/22 01:15:25;;;;;;;15.32;10.93;;;;;;;;;;6149702;23;20018;-84
2022/08/22 01:17:59;;;;;;;16.42;11.80;;;;;;;;;;6126817;23;20481;-83
2022/08/22 01:20:33;;;;;;;13.82;10.88;;;;;;;;;;6126783;23;20022;-85
2022/08/22 01:23:03;;;;;;;15.45;12.07;;;;;;;;;;6126894;23;20089;-86
2022/08/22 01:26:09;;;;;;;17.80;12.73;;;;;;;;;;6126611;23;20336;-85
2022/08/22 01:28:43;;;;;;;16.95;12.13;;;;;;;;;;6065894;23;20049;-85
2022/08/22 01:31:15;;;;;;;19.27;11.38;;;;;;;;;;6066107;23;20082;-84
2022/08/22 01:34:01;;;;;;;18.02;12.32;;;;;;;;;;6100491;23;20092;-84
2022/08/22 01:36:48;;;;;;;17.17;12.60;;;;;;;;;;6126748;23;20022;-84
2022/08/22 01:39:25;;;;;;;17.73;11.93;;;;;;;;;;6126464;23;20126;-84
2022/08/22 01:42:11;;;;;;;17.98;13.38;;;;;;;;;;6126691;23;20037;-84
2022/08/22 01:44:50;;;;;;;19.45;13.15;;;;;;;;;;6126510;23;20085;-85
2022/08/22 01:47:41;;;;;;;19.42;13.43;;;;;;;;;;6126531;23;20018;-83
2022/08/22 01:50:32;;;;;;;19.08;13.38;;;;;;;;;;6098824;23;20028;-84
2022/08/22 01:53:18;;;;;;;19.70;12.40;;;;;;;;;;6126659;23;20060;-84
2022/08/22 01:56:04;;;;;;;17.05;12.20;;;;;;;;;;6126651;23;20033;-84
2022/08/22 01:58:33;;;;;;;17.42;12.77;;;;;;;;;;6126467;23;20018;-84
2022/08/22 02:01:03;;;;;;;18.85;12.65;;;;;;;;;;6126839;23;20018;-84
2022/08/22 02:03:38;;;;;;;16.83;12.63;;;;;;;;;;6127174;23;20018;-83
2022/08/22 02:06:18;;;;;;;17.02;12.40;;;;;;;;;;6125976;23;20014;-84
2022/08/22 02:09:04;;;;;;;13.85;12.18;;;;;;;;;;6126406;23;20018;-84
2022/08/22 02:11:40;;;;;;;17.58;13.25;;;;;;;;;;6126378;23;20022;-84
2022/08/22 02:14:22;;;;;;;17.05;13.27;;;;;;;;;;6126083;23;20085;-84
2022/08/22 02:16:54;;;;;;;22.55;13.23;;;;;;;;;;6126364;23;20425;-84
2022/08/22 02:19:45;;;;;;;15.50;13.05;;;;;;;;;;6126220;23;20085;-83
2022/08/22 02:22:21;;;;;;;15.48;12.30;;;;;;;;;;6118613;23;20030;-84
2022/08/22 02:25:03;;;;;;;16.00;13.13;;;;;;;;;;6126094;23;20082;-83
2022/08/22 02:27:41;;;;;;;17.60;12.95;;;;;;;;;;6126136;23;20077;-84
2022/08/22 02:30:11;;;;;;;17.20;13.82;;;;;;;;;;6126162;23;20049;-83
2022/08/22 02:32:41;;;;;;;21.27;13.07;;;;;;;;;;6126013;23;20013;-84
2022/08/22 02:35:29;;;;;;;16.25;13.48;;;;;;;;;;6126205;23;20045;-83
2022/08/22 02:38:02;;;;;;;18.88;13.38;;;;;;;;;;6126156;23;20045;-83
2022/08/22 02:40:33;;;;;;;16.85;14.73;;;;;;;;;;6125984;23;20017;-83
2022/08/22 02:43:07;;;;;;;16.85;14.35;;;;;;;;;;6125939;23;20018;-83
2022/08/22 02:45:34;;;;;;;19.83;14.50;;;;;;;;;;6126186;23;20114;-83
2022/08/22 02:48:19;;;;;;;21.27;15.80;;;;;;;;;;6125966;23;20021;-83
2022/08/22 02:50:51;;;;;;;22.13;16.55;;;;;;;;;;6125663;23;20089;-83
2022/08/22 02:53:28;;;;;;;17.63;15.73;;;;;;;;;;6125916;23;20041;-83
2022/08/22 02:55:59;;;;;;;19.25;15.35;;;;;;;;;;6125863;23;20018;-83
2022/08/22 02:58:47;;;;;;;18.75;15.50;;;;;;;;;;6124350;23;20021;-83
2022/08/22 03:01:18;;;;;;;17.60;14.50;;;;;;;;;;6125975;23;20076;-83
2022/08/22 03:03:46;;;;;;;19.48;15.38;;;;;;;;;;6125946;23;20048;-83
2022/08/22 03:06:16;;;;;;;19.65;16.38;;;;;;;;;;6125711;23;20029;-82
2022/08/22 03:09:14;;;;;;;17.90;15.27;;;;;;;;;;6126179;23;20018;-82
2022/08/22 03:11:44;;;;;;;20.73;15.73;;;;;;;;;;6123354;23;20102;-83
2022/08/22 03:14:20;;;;;;;20.33;16.35;;;;;;;;;;6124027;23;20020;-83
2022/08/22 03:16:52;;;;;;;18.08;15.90;;;;;;;;;;6125713;23;20041;-82
2022/08/22 03:19:22;;;;;;;20.98;17.38;;;;;;;;;;6125621;23;20021;-83
2022/08/22 03:22:01;;;;;;;21.67;17.35;;;;;;;;;;6125835;23;20024;-83
2022/08/22 03:24:47;;;;;;;21.67;16.55;;;;;;;;;;6125680;23;20022;-83
2022/08/22 03:27:23;;;;;;;26.77;18.05;;;;;;;;;;6125742;23;20022;-83
2022/08/22 03:30:05;;;;;;;24.40;19.10;;;;;;;;;;6126001;23;20018;-83
2022/08/22 03:32:48;;;;;;;23.40;18.67;;;;;;;;;;6125726;23;20021;-83
2022/08/22 03:35:29;;;;;;;24.58;18.17;;;;;;;;;;6125945;23;20336;-83
2022/08/22 03:38:08;;;;;;;21.00;17.77;;;;;;;;;;6125817;23;20048;-83
2022/08/22 03:41:07;;;;;;;23.60;18.60;;;;;;;;;;6125597;23;20333;-83
2022/08/22 03:43:45;;;;;;;24.92;18.25;;;;;;;;;;6125733;23;20108;-83
2022/08/22 03:46:33;;;;;;;24.45;18.58;;;;;;;;;;6125445;23;20090;-77
2022/08/22 03:49:30;;;;;;;21.08;17.33;;;;;;;;;;6125724;23;20038;-72
2022/08/22 03:52:16;;;;;;;25.17;18.60;;;;;;;;;;6112787;23;20092;-72
2022/08/22 03:54:54;;;;;;;26.17;18.95;;;;;;;;;;6125616;23;20042;-72
2022/08/22 03:57:27;;;;;;;24.25;19.88;;;;;;;;;;6125446;23;20121;-73
2022/08/22 04:00:10;;;;;;;24.10;19.83;;;;;;;;;;6125747;23;20018;-73
2022/08/22 04:02:52;;;;;;;25.38;20.33;;;;;;;;;;6126563;23;20024;-84
2022/08/22 04:05:32;;;;;;;26.35;19.90;;;;;;;;;;6127599;23;20089;-84
2022/08/22 04:08:09;;;;;;;26.10;20.42;;;;;;;;;;6127558;23;20384;-87
2022/08/22 04:10:58;;;;;;;37.25;28.40;;;;;;;;;;6127440;23;20081;-86
2022/08/22 04:13:47;;;;;;;25.83;20.10;;;;;;;;;;6127333;23;20021;-86
2022/08/22 04:16:23;;;;;;;26.58;20.77;;;;;;;;;;6127479;23;20029;-85
2022/08/22 04:19:03;;;;;;;27.35;21.83;;;;;;;;;;6127796;23;20018;-86
2022/08/22 04:21:53;;;;;;;25.88;21.88;;;;;;;;;;6127527;23;20449;-86
2022/08/22 04:24:23;;;;;;;27.83;21.45;;;;;;;;;;6127339;23;20072;-86
2022/08/22 04:26:53;;;;;;;25.05;20.20;;;;;;;;;;6127227;23;20061;-85
2022/08/22 04:29:24;;;;;;;26.05;21.77;;;;;;;;;;6125452;23;20349;-86
2022/08/22 04:32:31;;;;;;;29.23;21.95;;;;;;;;;;6126188;23;20093;-86
2022/08/22 04:35:05;;;;;;;25.45;20.63;;;;;;;;;;6066522;23;20091;-87
2022/08/22 04:37:38;;;;;;;21.92;17.83;;;;;;;;;;6066616;23;20022;-86
2022/08/22 04:40:08;;;;;;;23.33;17.88;;;;;;;;;;6101709;23;20021;-84
2022/08/22 04:42:41;;;;;;;21.77;17.77;;;;;;;;;;6126177;23;20394;-83
2022/08/22 04:45:12;;;;;;;21.15;16.27;;;;;;;;;;6124802;23;20037;-82
2022/08/22 04:47:42;;;;;;;22.50;16.80;;;;;;;;;;6124860;23;20389;-81
2022/08/22 04:50:25;;;;;;;20.73;15.48;;;;;;;;;;6124947;23;20025;-83
2022/08/22 04:52:53;;;;;;;19.73;16.00;;;;;;;;;;6124734;23;20448;-80
2022/08/22 04:55:32;;;;;;;18.42;14.63;;;;;;;;;;6125108;23;20018;-82
2022/08/22 04:58:18;;;;;;;18.88;14.80;;;;;;;;;;6126348;23;20018;-83
2022/08/22 05:00:46;;;;;;;19.17;14.93;;;;;;;;;;6127221;23;20018;-83
2022/08/22 05:03:15;;;;;;;19.45;15.15;;;;;;;;;;6126910;23;20020;-82
2022/08/22 05:05:44;;;;;;;21.00;15.70;;;;;;;;;;6126927;23;20022;-83
2022/08/22 05:08:14;;;;;;;20.15;15.82;;;;;;;;;;6126880;23;20068;-82
2022/08/22 05:10:45;;;;;;;93.07;80.35;;;;;;;;;;6126628;23;20014;-82
2022/08/22 05:13:39;;;;;;;41.25;36.60;;;;;;;;;;6126285;23;20553;-82
2022/08/22 05:16:11;;;;;;;20.70;16.60;;;;;;;;;;6125163;23;20018;-84
2022/08/22 05:18:42;;;;;;;19.70;17.02;;;;;;;;;;6126990;23;20018;-84
2022/08/22 05:21:11;;;;;;;19.02;16.25;;;;;;;;;;6126205;23;20393;-86
2022/08/22 05:23:47;;;;;;;19.45;15.43;;;;;;;;;;6126660;23;20453;-84
2022/08/22 05:26:15;;;;;;;17.33;14.57;;;;;;;;;;6126764;23;20049;-84
2022/08/22 05:28:46;;;;;;;18.15;13.80;;;;;;;;;;6126856;23;20022;-84
2022/08/22 05:31:25;;;;;;;17.02;14.43;;;;;;;;;;6126615;23;20060;-84
2022/08/22 05:33:56;;;;;;;15.50;13.82;;;;;;;;;;6126445;23;20097;-82
2022/08/22 05:36:41;;;;;;;17.85;13.45;;;;;;;;;;6126502;23;20025;-81
2022/08/22 05:39:08;;;;;;;14.57;12.88;;;;;;;;;;6126538;23;20045;-81
2022/08/22 05:41:37;;;;;;;14.88;12.38;;;;;;;;;;6127336;23;20033;-81
2022/08/22 05:44:07;;;;;;;16.77;12.73;;;;;;;;;;6126643;23;20093;-81
2022/08/22 05:46:43;;;;;;;14.68;11.82;;;;;;;;;;6126703;23;20384;-81
2022/08/22 05:49:34;;;;;;;13.25;11.70;;;;;;;;;;6127033;23;20021;-82
2022/08/22 05:52:08;;;;;;;14.25;11.15;;;;;;;;;;6099281;23;20014;-81
2022/08/22 05:54:47;;;;;;;12.07;10.77;;;;;;;;;;6127163;23;20065;-81
2022/08/22 05:57:20;;;;;;;34.10;28.65;;;;;;;;;;6126457;23;20049;-82
2022/08/22 05:59:51;;;;;;;14.63;11.43;;;;;;;;;;6126459;23;20052;-81
2022/08/22 06:02:21;;;;;;;15.05;11.82;;;;;;;;;;6127296;23;20065;-81
2022/08/22 06:04:53;;;;;;;14.57;12.23;;;;;;;;;;6126412;23;20449;-82
2022/08/22 06:07:34;;;;;;;14.07;10.20;;;;;;;;;;6126335;23;20423;-81
2022/08/22 06:10:02;;;;;;;15.38;12.35;;;;;;;;;;6126668;23;20018;-82
2022/08/22 06:12:33;;;;;;;16.52;13.07;;;;;;;;;;6126655;23;20018;-81
2022/08/22 06:15:04;;;;;;;11.98;10.00;;;;;;;;;;6126530;23;20041;-81
2022/08/22 06:17:43;;;;;;;13.35;11.23;;;;;;;;;;6126282;23;20022;-82
2022/08/22 06:20:15;;;;;;;13.25;10.40;;;;;;;;;;6126101;23;20052;-82
2022/08/22 06:22:45;;;;;;;13.88;12.02;;;;;;;;;;6125982;23;20049;-81
2022/08/22 06:25:14;;;;;;;11.73;10.20;;;;;;;;;;6126042;23;20037;-82
2022/08/22 06:27:42;;;;;;;12.25;9.90;;;;;;;;;;6125869;23;20029;-82
2022/08/22 06:30:12;;;;;;;10.32;9.32;;;;;;;;;;6126149;23;20046;-82
2022/08/22 06:32:44;;;;;;;11.73;9.70;;;;;;;;;;6124785;23;20464;-82
2022/08/22 06:38:27;;;;;;;16.35;10.65;;;;;;;;;;6126267;23;20318;-82
2022/08/22 06:40:56;;;;;;;13.52;10.63;;;;;;;;;;6126435;23;20022;-82
2022/08/22 06:43:24;;;;;;;14.55;11.32;;;;;;;;;;6126198;23;20033;-81
2022/08/22 06:45:52;;;;;;;10.50;9.40;;;;;;;;;;6149157;23;20018;-81
2022/08/22 06:48:22;;;;;;;10.27;8.52;;;;;;;;;;6125908;23;20025;-81
2022/08/22 06:50:52;;;;;;;11.80;9.75;;;;;;;;;;6126134;23;20065;-82
2022/08/22 06:53:23;;;;;;;12.23;8.88;;;;;;;;;;6126041;23;20085;-81
2022/08/22 06:55:56;;;;;;;12.65;8.57;;;;;;;;;;6126114;23;20018;-81
2022/08/22 06:58:26;;;;;;;10.65;8.80;;;;;;;;;;6124520;23;20389;-81
2022/08/22 07:01:06;;;;;;;12.38;8.80;;;;;;;;;;6126041;23;20336;-81
2022/08/22 07:03:40;;;;;;;11.32;9.00;;;;;;;;;;6125980;23;20386;-81
2022/08/22 07:06:13;;;;;;;10.27;8.07;;;;;;;;;;6124537;23;20018;-81
2022/08/22 07:08:41;;;;;;;9.70;8.70;;;;;;;;;;6125681;23;20326;-81
2022/08/22 07:11:14;;;;;;;44.22;39.45;;;;;;;;;;6125868;23;20042;-81
2022/08/22 07:14:01;;;;;;;10.15;9.07;;;;;;;;;;6125821;23;20029;-81
2022/08/22 07:16:31;;;;;;;12.63;9.70;;;;;;;;;;6124280;23;20018;-81
2022/08/22 07:18:59;;;;;;;9.93;8.52;;;;;;;;;;6124181;23;20022;-81
2022/08/22 07:21:28;;;;;;;10.90;9.10;;;;;;;;;;6125600;23;20017;-80
2022/08/22 07:23:59;;;;;;;9.98;8.55;;;;;;;;;;6125680;23;20026;-80
2022/08/22 07:26:30;;;;;;;11.23;9.05;;;;;;;;;;6124224;23;20052;-80
2022/08/22 07:29:16;;;;;;;10.52;8.73;;;;;;;;;;6125674;23;20068;-80
2022/08/22 07:31:54;;;;;;;12.30;9.05;;;;;;;;;;6125670;23;20437;-81
2022/08/22 07:34:22;;;;;;;11.70;8.65;;;;;;;;;;6125692;23;20051;-80
2022/08/22 07:36:55;;;;;;;11.23;8.40;;;;;;;;;;6125405;23;20028;-80
2022/08/22 07:39:31;;;;;;;11.27;9.15;;;;;;;;;;6125684;23;20018;-80
2022/08/22 07:42:09;;;;;;;9.48;8.55;;;;;;;;;;6125792;23;20049;-80
2022/08/22 07:44:44;;;;;;;11.75;8.00;;;;;;;;;;6125680;23;20069;-80
2022/08/22 07:47:15;;;;;;;10.20;9.10;;;;;;;;;;6125565;23;20069;-80
2022/08/22 07:49:57;;;;;;;12.18;8.95;;;;;;;;;;6125706;23;20329;-80
2022/08/22 07:52:26;;;;;;;10.65;8.93;;;;;;;;;;6124103;23;20503;-80
2022/08/22 07:55:00;;;;;;;10.23;8.38;;;;;;;;;;6124149;23;20333;-79
2022/08/22 07:57:31;;;;;;;9.85;8.52;;;;;;;;;;6125475;23;20046;-79
2022/08/22 07:59:59;;;;;;;9.93;8.43;;;;;;;;;;6125565;23;20025;-80
2022/08/22 08:02:27;;;;;;;9.00;7.47;;;;;;;;;;6125519;23;20014;-79
2022/08/22 08:04:57;;;;;;;9.73;8.02;;;;;;;;;;6125503;23;20018;-80
2022/08/22 08:07:26;;;;;;;8.70;7.50;;;;;;;;;;6125486;23;20014;-80
2022/08/22 08:10:00;;;;;;;11.27;8.90;;;;;;;;;;6125436;23;20089;-80
2022/08/22 08:12:28;;;;;;;;;;;;;;;;;;6126051;23;20018;-80
2022/08/22 08:14:56;;;;;;;11.68;8.90;;;;;;;;;;6125436;23;19917;-80
2022/08/22 08:17:29;;;;;;;10.88;7.90;;;;;;;;;;6125357;23;20044;-80
2022/08/22 08:20:01;;;;;;;9.63;8.32;;;;;;;;;;6125344;23;20025;-80
2022/08/22 08:22:29;;;;;;;9.30;7.15;;;;;;;;;;6125197;23;20017;-80
2022/08/22 08:24:58;;;;;;;9.98;6.95;;;;;;;;;;6125615;23;20025;-80
2022/08/22 08:30:18;;;;;;;10.45;9.32;;;;;;;;;;6125432;23;20014;-80
2022/08/22 08:32:48;;;;;;;10.50;9.15;;;;;;;;;;6125479;23;20444;-80
2022/08/22 08:35:42;;;;;;;9.05;7.15;;;;;;;;;;6125423;23;20024;-80
2022/08/22 08:38:32;;;;;;;10.50;8.40;;;;;;;;;;6125801;23;20093;-80
2022/08/22 08:41:19;;;;;;;9.48;7.55;;;;;;;;;;6125786;23;20022;-82
2022/08/22 08:44:05;;;;;;;8.90;7.82;;;;;;;;;;6125530;23;20014;-80
2022/08/22 08:46:51;;;;;;;9.57;8.60;;;;;;;;;;6125763;23;20026;-80
2022/08/22 08:49:25;;;;;;;8.82;7.32;;;;;;;;;;6124586;23;20335;-80
2022/08/22 08:52:12;;;;;;;10.85;8.68;;;;;;;;;;6127193;23;20018;-79
2022/08/22 08:54:48;;;;;;;9.30;8.00;;;;;;;;;;6126931;23;20349;-79
2022/08/22 08:57:22;;;;;;;9.93;7.80;;;;;;;;;;6127092;23;20045;-80
2022/08/22 09:00:05;;;;;;;9.20;8.20;;;;;;;;;;6127040;23;20077;-80
2022/08/22 09:02:48;;;;;;;10.88;7.00;;;;;;;;;;6127018;23;20088;-80
2022/08/22 09:05:19;;;;;;;9.15;7.15;;;;;;;;;;6127122;23;20025;-82
2022/08/22 09:07:53;;;;;;;9.13;6.90;;;;;;;;;;6127095;23;20069;-81
2022/08/22 09:10:41;;;;;;;9.82;6.95;;;;;;;;;;6127204;23;20088;-82
2022/08/22 09:13:28;;;;;;;10.77;8.85;;;;;;;;;;6097067;23;20444;-81
2022/08/22 09:16:16;;;;;;;11.00;8.50;;;;;;;;;;6126993;23;20022;-80
2022/08/22 09:19:04;;;;;;;10.65;8.57;;;;;;;;;;6126977;23;20519;-80
2022/08/22 09:21:34;;;;;;;10.88;9.75;;;;;;;;;;6126900;23;20506;-80
2022/08/22 09:24:11;;;;;;;10.55;8.73;;;;;;;;;;6126910;23;20378;-80
2022/08/22 09:26:48;;;;;;;9.82;7.03;;;;;;;;;;6126928;23;20456;-80
2022/08/22 09:29:34;;;;;;;12.32;8.35;;;;;;;;;;6125366;23;20021;-80
2022/08/22 09:32:33;;;;;;;10.37;8.40;;;;;;;;;;6127089;23;20441;-80
2022/08/22 09:35:16;;;;;;;7.25;6.28;;;;;;;;;;6126890;23;20244;-80
2022/08/22 09:37:59;;;;;;;8.77;7.38;;;;;;;;;;6126887;23;20014;-80
2022/08/22 09:40:30;;;;;;;9.88;7.25;;;;;;;;;;6126881;23;20022;-81
2022/08/22 09:43:05;;;;;;;7.80;6.70;;;;;;;;;;6126818;23;20069;-81
2022/08/22 09:45:40;;;;;;;7.95;7.13;;;;;;;;;;6126710;23;20456;-81
2022/08/22 09:48:24;;;;;;;9.35;7.68;;;;;;;;;;6125119;23;20019;-80
2022/08/22 09:50:59;;;;;;;11.68;8.07;;;;;;;;;;6125444;23;20101;-82
2022/08/22 09:54:05;;;;;;;9.93;7.90;;;;;;;;;;6126298;23;20033;-82
2022/08/22 09:56:38;;;;;;;12.25;9.98;;;;;;;;;;6126074;23;20032;-82
2022/08/22 09:59:21;;;;;;;7.95;7.03;;;;;;;;;;6126535;23;20014;-82
2022/08/22 10:01:57;;;;;;;11.73;7.45;;;;;;;;;;6126469;23;20053;-82
2022/08/22 10:04:28;;;;;;;13.50;9.40;;;;;;;;;;6126481;23;20460;-82
2022/08/22 10:06:55;;;;;;;8.80;7.90;;;;;;;;;;6126353;23;20052;-82
2022/08/22 10:09:44;;;;;;;8.82;7.60;;;;;;;;;;6126751;23;20022;-82
2022/08/22 10:12:18;;;;;;;10.85;8.52;;;;;;;;;;6126440;23;20326;-82
2022/08/22 10:15:03;;;;;;;11.20;8.65;;;;;;;;;;6126648;23;20437;-81
2022/08/22 10:17:35;;;;;;;10.43;9.32;;;;;;;;;;6124978;23;20028;-82
2022/08/22 10:20:20;;;;;;;10.02;8.55;;;;;;;;;;6126584;23;20388;-82
2022/08/22 10:22:56;;;;;;;9.93;8.55;;;;;;;;;;6126701;23;20337;-83
2022/08/22 10:25:34;;;;;;;10.88;8.77;;;;;;;;;;6127143;23;20013;-84
2022/08/22 10:28:11;;;;;;;12.80;9.05;;;;;;;;;;6126556;23;20022;-83
2022/08/22 10:30:47;;;;;;;9.90;8.95;;;;;;;;;;6127562;23;20054;-83
2022/08/22 10:33:24;;;;;;;11.25;9.18;;;;;;;;;;6126773;23;20014;-82
2022/08/22 10:36:10;;;;;;;10.85;9.20;;;;;;;;;;6126749;23;20018;-83
2022/08/22 10:38:46;;;;;;;10.07;7.85;;;;;;;;;;6126583;23;20018;-84
2022/08/22 10:41:32;;;;;;;10.35;7.75;;;;;;;;;;6127151;23;20097;-84
2022/08/22 10:44:15;;;;;;;11.35;8.40;;;;;;;;;;6128273;23;20026;-82
2022/08/22 10:46:56;;;;;;;9.18;7.68;;;;;;;;;;6126894;23;20089;-84
2022/08/22 10:49:27;;;;;;;11.25;9.02;;;;;;;;;;6126270;23;20388;-84
2022/08/22 10:52:00;;;;;;;13.07;8.85;;;;;;;;;;6125967;23;20044;-84
2022/08/22 10:54:50;;;;;;;8.70;7.28;;;;;;;;;;6126421;23;20014;-82
2022/08/22 10:57:36;;;;;;;8.25;7.45;;;;;;;;;;6126438;23;20045;-84
2022/08/22 11:00:08;;;;;;;14.07;7.85;;;;;;;;;;6127355;23;20519;-85
2022/08/22 11:02:39;;;;;;;9.27;8.10;;;;;;;;;;6126352;23;20048;-83
2022/08/22 11:05:22;;;;;;;12.10;9.23;;;;;;;;;;6127248;23;20475;-83
2022/08/22 11:08:03;;;;;;;42.22;37.45;;;;;;;;;;6126170;23;20017;-85
2022/08/22 11:10:57;;;;;;;12.57;10.95;;;;;;;;;;6125949;23;20022;-84
2022/08/22 11:13:32;;;;;;;10.18;8.27;;;;;;;;;;6104302;23;20022;-84
2022/08/22 11:16:08;;;;;;;10.13;9.02;;;;;;;;;;6125973;23;20090;-84
2022/08/22 11:18:44;;;;;;;9.98;8.95;;;;;;;;;;6125984;23;20081;-84
2022/08/22 11:21:44;;;;;;;12.73;11.07;;;;;;;;;;6126009;23;20049;-84
2022/08/22 11:24:18;;;;;;;12.77;11.48;;;;;;;;;;6126207;23;20018;-83
2022/08/22 11:27:13;;;;;;;12.20;9.15;;;;;;;;;;6125940;23;20018;-82
2022/08/22 11:30:01;;;;;;;11.25;10.07;;;;;;;;;;6125648;23;20022;-81
2022/08/22 11:32:38;;;;;;;13.63;10.55;;;;;;;;;;6125985;23;20025;-82
2022/08/22 11:35:12;;;;;;;9.48;8.38;;;;;;;;;;6126177;23;20037;-81
2022/08/22 11:37:49;;;;;;;12.63;8.18;;;;;;;;;;6126067;23;20029;-83
2022/08/22 11:40:37;;;;;;;9.00;8.10;;;;;;;;;;6125918;23;20022;-82
2022/08/22 11:43:33;;;;;;;9.60;7.95;;;;;;;;;;6125826;23;20340;-82
2022/08/22 11:46:13;;;;;;;9.38;8.48;;;;;;;;;;6103658;23;20105;-83
2022/08/22 11:48:46;;;;;;;39.15;35.17;;;;;;;;;;6125585;23;20031;-82
2022/08/22 11:51:18;;;;;;;10.85;9.75;;;;;;;;;;6149230;23;20014;-82
2022/08/22 11:54:24;;;;;;;9.95;8.50;;;;;;;;;;6125839;23;20121;-73
2022/08/22 11:57:17;;;;;;;10.45;8.07;;;;;;;;;;6095703;23;20018;-77
2022/08/22 11:59:44;;;;;;;8.82;8.00;;;;;;;;;;6125871;23;20065;-79
2022/08/22 12:02:17;;;;;;;8.77;7.68;;;;;;;;;;6125852;23;20024;-80
2022/08/22 12:04:47;;;;;;;9.88;8.00;;;;;;;;;;6125026;23;20018;-80
2022/08/22 12:07:18;;;;;;;8.13;7.32;;;;;;;;;;6125500;23;20017;-81
2022/08/22 12:09:53;;;;;;;8.98;7.93;;;;;;;;;;6125565;23;20029;-79
2022/08/22 12:12:26;;;;;;;10.32;8.60;;;;;;;;;;6125947;23;20029;-88
2022/08/22 12:15:06;;;;;;;11.13;7.93;;;;;;;;;;6125984;23;20094;-79
2022/08/22 12:17:41;;;;;;;9.73;7.78;;;;;;;;;;6125564;23;20014;-81
2022/08/22 12:20:43;;;;;;;9.57;7.55;;;;;;;;;;6125299;23;20018;-82
2022/08/22 12:23:30;;;;;;;12.02;8.02;;;;;;;;;;6126584;23;20018;-81
2022/08/22 12:26:21;;;;;;;9.82;7.65;;;;;;;;;;6127340;23;20013;-83
2022/08/22 12:29:09;;;;;;;9.02;7.88;;;;;;;;;;6125710;23;20452;-80
2022/08/22 12:31:58;;;;;;;11.30;8.03;;;;;;;;;;6119929;23;20022;-77
2022/08/22 12:34:47;;;;;;;8.98;7.47;;;;;;;;;;6127314;23;20248;-79
2022/08/22 12:37:17;;;;;;;9.98;8.57;;;;;;;;;;6127451;23;20045;-81
2022/08/22 12:39:57;;;;;;;9.43;8.25;;;;;;;;;;6127181;23;20040;-79
2022/08/22 12:42:24;;;;;;;10.93;9.80;;;;;;;;;;6127437;23;20025;-79
2022/08/22 12:45:18;;;;;;;10.57;7.72;;;;;;;;;;6127413;23;20076;-79
2022/08/22 12:47:55;;;;;;;10.43;7.25;;;;;;;;;;6125350;23;20042;-80
2022/08/22 12:50:28;;;;;;;8.50;7.40;;;;;;;;;;6127115;23;20048;-78
2022/08/22 12:53:05;;;;;;;8.68;7.35;;;;;;;;;;6127100;23;20021;-78
2022/08/22 12:55:44;;;;;;;9.68;7.63;;;;;;;;;;6125549;23;20385;-77
2022/08/22 12:58:15;;;;;;;9.48;7.72;;;;;;;;;;6127392;23;20023;-78
2022/08/22 13:00:46;;;;;;;9.40;7.85;;;;;;;;;;6130201;23;20017;-77
2022/08/22 13:03:42;;;;;;;8.73;7.30;;;;;;;;;;6127563;23;20108;-79
2022/08/22 13:06:29;;;;;;;33.25;29.75;;;;;;;;;;6115263;23;20338;-78
2022/08/22 13:08:56;;;;;;;9.73;8.30;;;;;;;;;;6127197;23;20014;-77
2022/08/22 13:11:25;;;;;;;9.88;7.85;;;;;;;;;;6127346;23;20367;-77
2022/08/22 13:13:56;;;;;;;12.77;9.05;;;;;;;;;;6127378;23;20022;-77
2022/08/22 13:16:25;;;;;;;11.27;7.60;;;;;;;;;;6127358;23;20022;-77
2022/08/22 13:18:54;;;;;;;7.78;7.03;;;;;;;;;;6127225;23;20022;-78
2022/08/22 13:21:27;;;;;;;8.48;7.40;;;;;;;;;;6126918;23;20026;-77
2022/08/22 13:24:03;;;;;;;9.57;7.60;;;;;;;;;;6127234;23;20053;-78
2022/08/22 13:26:32;;;;;;;8.73;7.57;;;;;;;;;;6127054;23;20010;-77
2022/08/22 13:29:05;;;;;;;9.95;7.43;;;;;;;;;;6126932;23;20085;-78
2022/08/22 13:31:57;;;;;;;8.77;7.30;;;;;;;;;;6127143;23;20018;-77
2022/08/22 13:34:24;;;;;;;8.18;7.13;;;;;;;;;;6126519;23;20393;-77
2022/08/22 13:36:54;;;;;;;11.45;7.82;;;;;;;;;;6127187;23;20109;-77
2022/08/22 13:39:33;;;;;;;8.98;7.75;;;;;;;;;;6126837;23;20037;-77
2022/08/22 13:42:02;;;;;;;11.50;8.38;;;;;;;;;;6126755;23;20085;-77
2022/08/22 13:44:43;;;;;;;10.05;8.10;;;;;;;;;;6126614;23;20073;-77
2022/08/22 13:47:14;;;;;;;8.18;7.35;;;;;;;;;;6126445;23;20037;-80
2022/08/22 13:49:44;;;;;;;11.10;7.90;;;;;;;;;;6124842;23;20022;-76
2022/08/22 13:52:12;;;;;;;10.15;7.65;;;;;;;;;;6126910;23;20041;-76
2022/08/22 13:55:09;;;;;;;8.73;7.70;;;;;;;;;;6126145;23;20018;-77
2022/08/22 13:57:59;;;;;;;9.07;7.35;;;;;;;;;;6126661;23;20024;-76
2022/08/22 14:00:56;;;;;;;10.43;7.60;;;;;;;;;;6126652;23;20026;-77
2022/08/22 14:03:45;;;;;;;9.30;7.10;;;;;;;;;;6112857;23;20026;-76
2022/08/22 14:06:28;;;;;;;10.38;8.50;;;;;;;;;;6124458;23;20049;-75
2022/08/22 14:09:13;;;;;;;8.95;7.38;;;;;;;;;;6125778;23;20049;-75
2022/08/22 14:11:46;;;;;;;9.30;8.18;;;;;;;;;;6124636;23;20022;-76
2022/08/22 14:14:21;;;;;;;8.27;7.47;;;;;;;;;;6126042;23;20085;-76
2022/08/22 14:16:50;;;;;;;10.60;7.72;;;;;;;;;;6126003;23;20045;-75
2022/08/22 14:19:28;;;;;;;9.00;7.13;;;;;;;;;;6124383;23;20413;-76
2022/08/22 14:22:04;;;;;;;8.00;6.95;;;;;;;;;;6125708;23;20445;-76
2022/08/22 14:24:40;;;;;;;9.80;7.57;;;;;;;;;;6124157;23;20050;-78
2022/08/22 14:27:16;;;;;;;9.73;7.28;;;;;;;;;;6125589;23;20032;-71
2022/08/22 14:29:50;;;;;;;7.85;7.05;;;;;;;;;;6125688;23;20022;-76
2022/08/22 14:32:20;;;;;;;7.63;6.72;;;;;;;;;;6125845;23;20018;-76
2022/08/22 14:34:55;;;;;;;11.70;7.05;;;;;;;;;;6125307;23;20021;-78
2022/08/22 14:37:32;;;;;;;10.27;7.00;;;;;;;;;;6125596;23;20018;-77
2022/08/22 14:40:09;;;;;;;8.63;6.88;;;;;;;;;;6125904;23;20069;-79
2022/08/22 14:42:58;;;;;;;11.40;7.32;;;;;;;;;;6125990;23;20018;-76
2022/08/22 14:45:32;;;;;;;8.88;6.97;;;;;;;;;;6124532;23;20018;-77
2022/08/22 14:48:09;;;;;;;26.27;22.33;;;;;;;;;;6125104;23;20380;-78
2022/08/22 14:50:59;;;;;;;11.60;8.70;;;;;;;;;;6124838;23;20092;-78
2022/08/22 14:53:31;;;;;;;8.32;7.00;;;;;;;;;;6125953;23;20020;-78
2022/08/22 14:56:08;;;;;;;8.05;6.70;;;;;;;;;;6125548;23;20092;-79
2022/08/22 14:58:46;;;;;;;9.05;7.10;;;;;;;;;;6125964;23;20057;-79
2022/08/22 15:01:16;;;;;;;10.27;7.32;;;;;;;;;;6125857;23;20177;-79
2022/08/22 15:03:50;;;;;;;10.00;7.20;;;;;;;;;;6125774;23;20018;-80
2022/08/22 15:06:37;;;;;;;10.70;8.10;;;;;;;;;;6125681;23;20041;-80
2022/08/22 15:09:31;;;;;;;11.73;6.88;;;;;;;;;;6125521;23;20022;-79
2022/08/22 15:12:00;;;;;;;8.63;7.72;;;;;;;;;;6124343;23;20330;-80
2022/08/22 15:14:43;;;;;;;7.72;6.75;;;;;;;;;;6125914;23;20049;-80
2022/08/22 15:17:33;;;;;;;10.05;7.40;;;;;;;;;;6125512;23;20340;-80
2022/08/22 15:20:11;;;;;;;8.13;7.25;;;;;;;;;;6124309;23;20057;-79
2022/08/22 15:22:44;;;;;;;9.40;8.05;;;;;;;;;;6125226;23;20101;-79
2022/08/22 15:25:15;;;;;;;13.88;7.85;;;;;;;;;;6125611;23;20089;-81
2022/08/22 15:28:06;;;;;;;8.95;7.60;;;;;;;;;;6125318;23;20029;-78
2022/08/22 15:30:42;;;;;;;11.48;8.32;;;;;;;;;;6124847;23;20033;-79
2022/08/22 15:33:31;;;;;;;8.40;7.45;;;;;;;;;;6126054;23;20010;-79
2022/08/22 15:36:19;;;;;;;9.65;7.30;;;;;;;;;;6125583;23;20345;-83